sensor_id;sensor_type;location;lat;lon;timestamp;P1;durP1;ratioP1;P2;durP2;ratioP2
59458;SDS011;45269;43.568;22.244;2023-08-06T00:01:46;3.60;;;2.60;;
59458;SDS011;45269;43.568;22.244;2023-08-06T00:04:12;2.88;;;2.30;;
59458;SDS011;45269;43.568;22.244;2023-08-06T00:06:37;3.20;;;2.25;;
59458;SDS011;45269;43.568;22.244;2023-08-06T00:09:02;3.45;;;2.40;;
59458;SDS011;45269;43.568;22.244;2023-08-06T00:11:28;5.43;;;2.45;;
59458;SDS011;45269;43.568;22.244;2023-08-06T00:13:53;2.30;;;2.10;;
59458;SDS011;45269;43.568;22.244;2023-08-06T00:16:18;2.58;;;2.38;;
59458;SDS011;45269;43.568;22.244;2023-08-06T00:18:44;4.07;;;2.47;;
59458;SDS011;45269;43.568;22.244;2023-08-06T00:21:09;3.65;;;2.45;;
59458;SDS011;45269;43.568;22.244;2023-08-06T00:23:34;2.50;;;2.20;;
59458;SDS011;45269;43.568;22.244;2023-08-06T00:26:00;2.58;;;2.33;;
59458;SDS011;45269;43.568;22.244;2023-08-06T00:28:25;4.45;;;2.67;;
59458;SDS011;45269;43.568;22.244;2023-08-06T00:30:57;2.60;;;2.40;;
59458;SDS011;45269;43.568;22.244;2023-08-06T00:33:22;3.65;;;2.70;;
59458;SDS011;45269;43.568;22.244;2023-08-06T00:35:48;4.18;;;2.53;;
59458;SDS011;45269;43.568;22.244;2023-08-06T00:38:13;2.42;;;2.22;;
59458;SDS011;45269;43.568;22.244;2023-08-06T00:40:39;3.20;;;2.50;;
59458;SDS011;45269;43.568;22.244;2023-08-06T00:43:04;2.78;;;2.58;;
59458;SDS011;45269;43.568;22.244;2023-08-06T00:45:29;3.33;;;2.58;;
59458;SDS011;45269;43.568;22.244;2023-08-06T00:47:55;2.78;;;2.58;;
59458;SDS011;45269;43.568;22.244;2023-08-06T00:50:20;2.50;;;2.30;;
59458;SDS011;45269;43.568;22.244;2023-08-06T00:52:47;5.18;;;2.60;;
59458;SDS011;45269;43.568;22.244;2023-08-06T00:55:13;3.20;;;2.50;;
59458;SDS011;45269;43.568;22.244;2023-08-06T00:57:38;2.00;;;1.90;;
59458;SDS011;45269;43.568;22.244;2023-08-06T01:00:04;3.55;;;2.35;;
59458;SDS011;45269;43.568;22.244;2023-08-06T01:02:29;4.20;;;2.30;;
59458;SDS011;45269;43.568;22.244;2023-08-06T01:04:55;2.88;;;2.42;;
59458;SDS011;45269;43.568;22.244;2023-08-06T01:07:25;3.65;;;2.20;;
59458;SDS011;45269;43.568;22.244;2023-08-06T01:12:30;3.08;;;2.58;;
59458;SDS011;45269;43.568;22.244;2023-08-06T01:15:05;2.28;;;2.05;;
59458;SDS011;45269;43.568;22.244;2023-08-06T01:17:32;2.40;;;2.20;;
59458;SDS011;45269;43.568;22.244;2023-08-06T01:19:59;3.40;;;2.83;;
59458;SDS011;45269;43.568;22.244;2023-08-06T01:22:24;2.90;;;2.67;;
59458;SDS011;45269;43.568;22.244;2023-08-06T01:24:50;3.80;;;2.40;;
59458;SDS011;45269;43.568;22.244;2023-08-06T01:29:45;5.57;;;2.58;;
59458;SDS011;45269;43.568;22.244;2023-08-06T01:32:11;2.55;;;2.35;;
59458;SDS011;45269;43.568;22.244;2023-08-06T01:34:39;2.55;;;2.35;;
59458;SDS011;45269;43.568;22.244;2023-08-06T01:37:05;2.92;;;2.70;;
59458;SDS011;45269;43.568;22.244;2023-08-06T01:39:33;3.67;;;2.72;;
59458;SDS011;45269;43.568;22.244;2023-08-06T01:41:58;6.30;;;2.70;;
59458;SDS011;45269;43.568;22.244;2023-08-06T01:44:23;4.45;;;2.72;;
59458;SDS011;45269;43.568;22.244;2023-08-06T01:46:49;2.78;;;2.58;;
59458;SDS011;45269;43.568;22.244;2023-08-06T01:49:14;4.50;;;3.08;;
59458;SDS011;45269;43.568;22.244;2023-08-06T01:51:39;2.60;;;2.40;;
59458;SDS011;45269;43.568;22.244;2023-08-06T01:54:05;3.28;;;2.63;;
59458;SDS011;45269;43.568;22.244;2023-08-06T01:56:30;4.10;;;2.30;;
59458;SDS011;45269;43.568;22.244;2023-08-06T01:58:55;4.30;;;2.50;;
59458;SDS011;45269;43.568;22.244;2023-08-06T02:01:21;3.55;;;2.63;;
59458;SDS011;45269;43.568;22.244;2023-08-06T02:03:46;3.40;;;2.50;;
59458;SDS011;45269;43.568;22.244;2023-08-06T02:06:11;5.10;;;2.85;;
59458;SDS011;45269;43.568;22.244;2023-08-06T02:08:37;3.40;;;2.67;;
59458;SDS011;45269;43.568;22.244;2023-08-06T02:11:02;3.10;;;2.63;;
59458;SDS011;45269;43.568;22.244;2023-08-06T02:13:28;6.72;;;2.55;;
59458;SDS011;45269;43.568;22.244;2023-08-06T02:15:53;4.68;;;2.35;;
59458;SDS011;45269;43.568;22.244;2023-08-06T02:18:18;8.43;;;3.03;;
59458;SDS011;45269;43.568;22.244;2023-08-06T02:20:44;4.18;;;2.30;;
59458;SDS011;45269;43.568;22.244;2023-08-06T02:23:19;2.95;;;2.70;;
59458;SDS011;45269;43.568;22.244;2023-08-06T02:25:44;3.30;;;2.90;;
59458;SDS011;45269;43.568;22.244;2023-08-06T02:28:10;3.03;;;2.55;;
59458;SDS011;45269;43.568;22.244;2023-08-06T02:30:35;2.40;;;2.20;;
59458;SDS011;45269;43.568;22.244;2023-08-06T02:33:00;2.42;;;2.22;;
59458;SDS011;45269;43.568;22.244;2023-08-06T02:35:26;5.07;;;2.70;;
59458;SDS011;45269;43.568;22.244;2023-08-06T02:37:51;4.05;;;2.70;;
59458;SDS011;45269;43.568;22.244;2023-08-06T02:40:16;3.83;;;2.70;;
59458;SDS011;45269;43.568;22.244;2023-08-06T02:42:42;5.13;;;2.60;;
59458;SDS011;45269;43.568;22.244;2023-08-06T02:45:07;7.78;;;2.40;;
59458;SDS011;45269;43.568;22.244;2023-08-06T02:47:33;3.70;;;2.40;;
59458;SDS011;45269;43.568;22.244;2023-08-06T02:49:58;4.10;;;2.38;;
59458;SDS011;45269;43.568;22.244;2023-08-06T02:52:24;3.70;;;2.38;;
59458;SDS011;45269;43.568;22.244;2023-08-06T02:54:49;3.53;;;2.10;;
59458;SDS011;45269;43.568;22.244;2023-08-06T02:57:14;2.63;;;2.42;;
59458;SDS011;45269;43.568;22.244;2023-08-06T02:59:40;9.25;;;2.42;;
59458;SDS011;45269;43.568;22.244;2023-08-06T03:02:05;3.35;;;2.33;;
59458;SDS011;45269;43.568;22.244;2023-08-06T03:04:30;3.45;;;1.80;;
59458;SDS011;45269;43.568;22.244;2023-08-06T03:06:56;6.47;;;2.20;;
59458;SDS011;45269;43.568;22.244;2023-08-06T03:09:22;4.35;;;2.10;;
59458;SDS011;45269;43.568;22.244;2023-08-06T03:11:47;2.08;;;1.95;;
59458;SDS011;45269;43.568;22.244;2023-08-06T03:14:12;4.80;;;2.08;;
59458;SDS011;45269;43.568;22.244;2023-08-06T03:16:38;3.80;;;2.00;;
59458;SDS011;45269;43.568;22.244;2023-08-06T03:19:03;3.65;;;2.15;;
59458;SDS011;45269;43.568;22.244;2023-08-06T03:21:28;2.65;;;2.03;;
59458;SDS011;45269;43.568;22.244;2023-08-06T03:23:54;3.53;;;2.45;;
59458;SDS011;45269;43.568;22.244;2023-08-06T03:26:19;6.32;;;2.15;;
59458;SDS011;45269;43.568;22.244;2023-08-06T03:28:44;6.53;;;2.88;;
59458;SDS011;45269;43.568;22.244;2023-08-06T03:31:10;9.65;;;2.40;;
59458;SDS011;45269;43.568;22.244;2023-08-06T03:33:35;3.08;;;1.98;;
59458;SDS011;45269;43.568;22.244;2023-08-06T03:36:01;4.50;;;2.10;;
59458;SDS011;45269;43.568;22.244;2023-08-06T03:38:26;5.18;;;2.10;;
59458;SDS011;45269;43.568;22.244;2023-08-06T03:40:52;2.25;;;2.05;;
59458;SDS011;45269;43.568;22.244;2023-08-06T03:43:18;4.32;;;2.50;;
59458;SDS011;45269;43.568;22.244;2023-08-06T03:45:43;3.83;;;2.20;;
59458;SDS011;45269;43.568;22.244;2023-08-06T03:48:08;7.22;;;2.65;;
59458;SDS011;45269;43.568;22.244;2023-08-06T03:50:34;3.63;;;2.55;;
59458;SDS011;45269;43.568;22.244;2023-08-06T03:53:00;4.72;;;2.35;;
59458;SDS011;45269;43.568;22.244;2023-08-06T03:55:25;4.43;;;2.47;;
59458;SDS011;45269;43.568;22.244;2023-08-06T03:57:50;2.30;;;2.00;;
59458;SDS011;45269;43.568;22.244;2023-08-06T04:00:16;2.35;;;2.10;;
59458;SDS011;45269;43.568;22.244;2023-08-06T04:02:41;2.20;;;2.05;;
59458;SDS011;45269;43.568;22.244;2023-08-06T04:05:07;2.83;;;2.15;;
59458;SDS011;45269;43.568;22.244;2023-08-06T04:07:32;3.30;;;2.40;;
59458;SDS011;45269;43.568;22.244;2023-08-06T04:09:59;3.20;;;2.53;;
59458;SDS011;45269;43.568;22.244;2023-08-06T04:12:24;3.50;;;2.00;;
59458;SDS011;45269;43.568;22.244;2023-08-06T04:14:51;2.80;;;2.00;;
59458;SDS011;45269;43.568;22.244;2023-08-06T04:17:17;7.10;;;2.53;;
59458;SDS011;45269;43.568;22.244;2023-08-06T04:19:45;5.35;;;2.63;;
59458;SDS011;45269;43.568;22.244;2023-08-06T04:22:11;3.40;;;2.65;;
59458;SDS011;45269;43.568;22.244;2023-08-06T04:24:36;4.00;;;2.20;;
59458;SDS011;45269;43.568;22.244;2023-08-06T04:27:01;2.90;;;2.38;;
59458;SDS011;45269;43.568;22.244;2023-08-06T04:29:27;2.95;;;2.38;;
59458;SDS011;45269;43.568;22.244;2023-08-06T04:31:52;4.70;;;2.10;;
59458;SDS011;45269;43.568;22.244;2023-08-06T04:34:17;6.07;;;2.30;;
59458;SDS011;45269;43.568;22.244;2023-08-06T04:36:43;3.13;;;2.33;;
59458;SDS011;45269;43.568;22.244;2023-08-06T04:39:08;3.05;;;2.40;;
59458;SDS011;45269;43.568;22.244;2023-08-06T04:41:33;2.88;;;2.40;;
59458;SDS011;45269;43.568;22.244;2023-08-06T04:43:58;3.25;;;2.50;;
59458;SDS011;45269;43.568;22.244;2023-08-06T04:46:24;2.38;;;2.20;;
59458;SDS011;45269;43.568;22.244;2023-08-06T04:48:49;3.22;;;2.00;;
59458;SDS011;45269;43.568;22.244;2023-08-06T04:51:14;2.60;;;1.92;;
59458;SDS011;45269;43.568;22.244;2023-08-06T04:53:40;3.28;;;2.10;;
59458;SDS011;45269;43.568;22.244;2023-08-06T04:56:05;3.70;;;1.88;;
59458;SDS011;45269;43.568;22.244;2023-08-06T04:58:31;4.10;;;2.30;;
59458;SDS011;45269;43.568;22.244;2023-08-06T05:00:56;3.28;;;2.20;;
59458;SDS011;45269;43.568;22.244;2023-08-06T05:03:22;3.28;;;2.25;;
59458;SDS011;45269;43.568;22.244;2023-08-06T05:05:47;2.67;;;2.10;;
59458;SDS011;45269;43.568;22.244;2023-08-06T05:08:15;2.22;;;2.03;;
59458;SDS011;45269;43.568;22.244;2023-08-06T05:10:44;4.75;;;2.40;;
59458;SDS011;45269;43.568;22.244;2023-08-06T05:13:09;3.80;;;2.22;;
59458;SDS011;45269;43.568;22.244;2023-08-06T05:15:35;3.83;;;2.40;;
59458;SDS011;45269;43.568;22.244;2023-08-06T05:18:00;2.53;;;2.08;;
59458;SDS011;45269;43.568;22.244;2023-08-06T05:20:26;3.45;;;2.20;;
59458;SDS011;45269;43.568;22.244;2023-08-06T05:22:51;2.95;;;2.10;;
59458;SDS011;45269;43.568;22.244;2023-08-06T05:25:16;4.65;;;2.22;;
59458;SDS011;45269;43.568;22.244;2023-08-06T05:27:42;3.03;;;2.30;;
59458;SDS011;45269;43.568;22.244;2023-08-06T05:30:07;2.72;;;2.20;;
59458;SDS011;45269;43.568;22.244;2023-08-06T05:32:33;6.55;;;2.20;;
59458;SDS011;45269;43.568;22.244;2023-08-06T05:34:58;3.97;;;2.47;;
59458;SDS011;45269;43.568;22.244;2023-08-06T05:37:23;2.53;;;2.30;;
59458;SDS011;45269;43.568;22.244;2023-08-06T05:39:49;2.13;;;2.03;;
59458;SDS011;45269;43.568;22.244;2023-08-06T05:42:14;5.38;;;2.17;;
59458;SDS011;45269;43.568;22.244;2023-08-06T05:44:39;2.53;;;1.98;;
59458;SDS011;45269;43.568;22.244;2023-08-06T05:47:05;2.35;;;2.17;;
59458;SDS011;45269;43.568;22.244;2023-08-06T05:49:30;2.13;;;1.98;;
59458;SDS011;45269;43.568;22.244;2023-08-06T05:51:56;2.70;;;2.17;;
59458;SDS011;45269;43.568;22.244;2023-08-06T05:54:21;2.25;;;1.95;;
59458;SDS011;45269;43.568;22.244;2023-08-06T05:56:46;2.00;;;1.90;;
59458;SDS011;45269;43.568;22.244;2023-08-06T05:59:12;2.25;;;1.75;;
59458;SDS011;45269;43.568;22.244;2023-08-06T06:01:37;2.25;;;2.10;;
59458;SDS011;45269;43.568;22.244;2023-08-06T06:04:02;2.88;;;2.08;;
59458;SDS011;45269;43.568;22.244;2023-08-06T06:06:28;2.05;;;1.85;;
59458;SDS011;45269;43.568;22.244;2023-08-06T06:08:53;2.75;;;1.98;;
59458;SDS011;45269;43.568;22.244;2023-08-06T06:11:19;2.65;;;2.45;;
59458;SDS011;45269;43.568;22.244;2023-08-06T06:13:47;6.63;;;2.28;;
59458;SDS011;45269;43.568;22.244;2023-08-06T06:16:12;2.17;;;1.98;;
59458;SDS011;45269;43.568;22.244;2023-08-06T06:18:37;2.83;;;2.20;;
59458;SDS011;45269;43.568;22.244;2023-08-06T06:21:03;2.47;;;2.28;;
59458;SDS011;45269;43.568;22.244;2023-08-06T06:23:28;2.30;;;2.10;;
59458;SDS011;45269;43.568;22.244;2023-08-06T06:25:53;2.38;;;2.08;;
59458;SDS011;45269;43.568;22.244;2023-08-06T06:28:19;2.67;;;2.45;;
59458;SDS011;45269;43.568;22.244;2023-08-06T06:30:45;2.30;;;2.10;;
59458;SDS011;45269;43.568;22.244;2023-08-06T06:33:10;2.20;;;1.95;;
59458;SDS011;45269;43.568;22.244;2023-08-06T06:35:36;2.70;;;2.25;;
59458;SDS011;45269;43.568;22.244;2023-08-06T06:38:01;2.33;;;2.22;;
59458;SDS011;45269;43.568;22.244;2023-08-06T06:40:27;5.25;;;2.35;;
59458;SDS011;45269;43.568;22.244;2023-08-06T06:42:53;2.33;;;2.22;;
59458;SDS011;45269;43.568;22.244;2023-08-06T06:45:18;3.60;;;2.53;;
59458;SDS011;45269;43.568;22.244;2023-08-06T06:47:43;2.33;;;2.22;;
59458;SDS011;45269;43.568;22.244;2023-08-06T06:50:09;5.28;;;2.65;;
59458;SDS011;45269;43.568;22.244;2023-08-06T06:52:34;3.10;;;2.60;;
59458;SDS011;45269;43.568;22.244;2023-08-06T06:55:00;2.72;;;2.53;;
59458;SDS011;45269;43.568;22.244;2023-08-06T06:57:25;2.33;;;2.22;;
59458;SDS011;45269;43.568;22.244;2023-08-06T06:59:50;2.85;;;2.65;;
59458;SDS011;45269;43.568;22.244;2023-08-06T07:02:16;2.67;;;2.47;;
59458;SDS011;45269;43.568;22.244;2023-08-06T07:04:41;2.92;;;2.65;;
59458;SDS011;45269;43.568;22.244;2023-08-06T07:07:06;3.20;;;2.90;;
59458;SDS011;45269;43.568;22.244;2023-08-06T07:09:32;2.58;;;2.38;;
59458;SDS011;45269;43.568;22.244;2023-08-06T07:11:57;4.95;;;2.20;;
59458;SDS011;45269;43.568;22.244;2023-08-06T07:14:24;2.53;;;2.33;;
59458;SDS011;45269;43.568;22.244;2023-08-06T07:16:49;2.60;;;2.40;;
59458;SDS011;45269;43.568;22.244;2023-08-06T07:19:14;2.85;;;2.65;;
59458;SDS011;45269;43.568;22.244;2023-08-06T07:21:40;3.28;;;3.00;;
59458;SDS011;45269;43.568;22.244;2023-08-06T07:24:05;3.08;;;2.88;;
59458;SDS011;45269;43.568;22.244;2023-08-06T07:26:31;3.25;;;3.05;;
59458;SDS011;45269;43.568;22.244;2023-08-06T07:28:56;4.40;;;3.03;;
59458;SDS011;45269;43.568;22.244;2023-08-06T07:31:21;3.38;;;3.08;;
59458;SDS011;45269;43.568;22.244;2023-08-06T07:33:47;3.63;;;3.33;;
59458;SDS011;45269;43.568;22.244;2023-08-06T07:36:13;3.70;;;3.40;;
59458;SDS011;45269;43.568;22.244;2023-08-06T07:38:38;4.30;;;3.40;;
59458;SDS011;45269;43.568;22.244;2023-08-06T07:41:04;5.13;;;3.30;;
59458;SDS011;45269;43.568;22.244;2023-08-06T07:43:30;3.40;;;3.20;;
59458;SDS011;45269;43.568;22.244;2023-08-06T07:45:57;3.08;;;2.88;;
59458;SDS011;45269;43.568;22.244;2023-08-06T07:48:23;3.45;;;3.17;;
59458;SDS011;45269;43.568;22.244;2023-08-06T07:50:51;3.00;;;2.70;;
59458;SDS011;45269;43.568;22.244;2023-08-06T07:53:18;3.28;;;2.97;;
59458;SDS011;45269;43.568;22.244;2023-08-06T07:55:47;3.75;;;3.45;;
59458;SDS011;45269;43.568;22.244;2023-08-06T07:58:12;3.70;;;3.40;;
59458;SDS011;45269;43.568;22.244;2023-08-06T08:00:37;3.65;;;3.35;;
59458;SDS011;45269;43.568;22.244;2023-08-06T08:03:04;4.97;;;3.75;;
59458;SDS011;45269;43.568;22.244;2023-08-06T08:05:29;3.72;;;3.38;;
59458;SDS011;45269;43.568;22.244;2023-08-06T08:07:55;4.20;;;3.80;;
59458;SDS011;45269;43.568;22.244;2023-08-06T08:10:20;3.33;;;3.08;;
59458;SDS011;45269;43.568;22.244;2023-08-06T08:12:46;4.97;;;4.15;;
59458;SDS011;45269;43.568;22.244;2023-08-06T08:15:12;4.05;;;3.58;;
59458;SDS011;45269;43.568;22.244;2023-08-06T08:17:38;4.07;;;3.22;;
59458;SDS011;45269;43.568;22.244;2023-08-06T08:20:03;5.03;;;3.47;;
59458;SDS011;45269;43.568;22.244;2023-08-06T08:22:30;3.78;;;3.47;;
59458;SDS011;45269;43.568;22.244;2023-08-06T08:24:55;3.53;;;3.22;;
59458;SDS011;45269;43.568;22.244;2023-08-06T08:27:20;3.53;;;3.33;;
59458;SDS011;45269;43.568;22.244;2023-08-06T08:29:46;3.92;;;3.58;;
59458;SDS011;45269;43.568;22.244;2023-08-06T08:32:11;3.50;;;3.30;;
59458;SDS011;45269;43.568;22.244;2023-08-06T08:34:36;4.97;;;3.63;;
59458;SDS011;45269;43.568;22.244;2023-08-06T08:37:02;3.30;;;3.10;;
59458;SDS011;45269;43.568;22.244;2023-08-06T08:39:27;2.75;;;2.60;;
59458;SDS011;45269;43.568;22.244;2023-08-06T08:41:52;3.10;;;2.80;;
59458;SDS011;45269;43.568;22.244;2023-08-06T08:44:18;4.40;;;3.45;;
59458;SDS011;45269;43.568;22.244;2023-08-06T08:46:43;5.68;;;3.45;;
59458;SDS011;45269;43.568;22.244;2023-08-06T08:49:09;3.10;;;2.90;;
59458;SDS011;45269;43.568;22.244;2023-08-06T08:51:35;3.80;;;3.50;;
59458;SDS011;45269;43.568;22.244;2023-08-06T08:54:04;4.03;;;3.72;;
59458;SDS011;45269;43.568;22.244;2023-08-06T08:56:30;4.07;;;3.67;;
59458;SDS011;45269;43.568;22.244;2023-08-06T08:58:55;4.70;;;3.60;;
59458;SDS011;45269;43.568;22.244;2023-08-06T09:01:24;4.05;;;3.75;;
59458;SDS011;45269;43.568;22.244;2023-08-06T09:03:50;3.85;;;3.50;;
59458;SDS011;45269;43.568;22.244;2023-08-06T09:06:17;4.20;;;3.90;;
59458;SDS011;45269;43.568;22.244;2023-08-06T09:08:44;4.38;;;3.75;;
59458;SDS011;45269;43.568;22.244;2023-08-06T09:11:11;3.95;;;3.50;;
59458;SDS011;45269;43.568;22.244;2023-08-06T09:13:37;4.10;;;3.75;;
59458;SDS011;45269;43.568;22.244;2023-08-06T09:16:03;4.30;;;4.00;;
59458;SDS011;45269;43.568;22.244;2023-08-06T09:18:29;3.97;;;3.58;;
59458;SDS011;45269;43.568;22.244;2023-08-06T09:20:56;4.22;;;3.83;;
59458;SDS011;45269;43.568;22.244;2023-08-06T09:23:29;4.82;;;4.43;;
59458;SDS011;45269;43.568;22.244;2023-08-06T09:25:56;4.70;;;3.88;;
59458;SDS011;45269;43.568;22.244;2023-08-06T09:28:21;4.22;;;3.85;;
59458;SDS011;45269;43.568;22.244;2023-08-06T09:30:47;4.40;;;4.10;;
59458;SDS011;45269;43.568;22.244;2023-08-06T09:33:14;4.03;;;3.60;;
59458;SDS011;45269;43.568;22.244;2023-08-06T09:35:42;4.10;;;3.70;;
59458;SDS011;45269;43.568;22.244;2023-08-06T09:38:08;4.93;;;4.22;;
59458;SDS011;45269;43.568;22.244;2023-08-06T09:40:35;4.72;;;4.32;;
59458;SDS011;45269;43.568;22.244;2023-08-06T09:43:00;5.13;;;4.68;;
59458;SDS011;45269;43.568;22.244;2023-08-06T09:45:28;5.68;;;4.70;;
59458;SDS011;45269;43.568;22.244;2023-08-06T09:47:55;4.38;;;4.07;;
59458;SDS011;45269;43.568;22.244;2023-08-06T09:50:20;4.75;;;4.35;;
59458;SDS011;45269;43.568;22.244;2023-08-06T09:52:46;4.38;;;4.05;;
59458;SDS011;45269;43.568;22.244;2023-08-06T09:55:13;4.80;;;4.50;;
59458;SDS011;45269;43.568;22.244;2023-08-06T09:57:41;4.72;;;4.30;;
59458;SDS011;45269;43.568;22.244;2023-08-06T10:00:07;4.20;;;3.90;;
59458;SDS011;45269;43.568;22.244;2023-08-06T10:02:34;4.78;;;4.43;;
59458;SDS011;45269;43.568;22.244;2023-08-06T10:05:00;4.70;;;4.30;;
59458;SDS011;45269;43.568;22.244;2023-08-06T10:07:26;5.00;;;4.60;;
59458;SDS011;45269;43.568;22.244;2023-08-06T10:09:52;4.28;;;3.92;;
59458;SDS011;45269;43.568;22.244;2023-08-06T10:12:17;4.50;;;4.18;;
59458;SDS011;45269;43.568;22.244;2023-08-06T10:14:44;4.22;;;3.92;;
59458;SDS011;45269;43.568;22.244;2023-08-06T10:17:10;4.75;;;4.38;;
59458;SDS011;45269;43.568;22.244;2023-08-06T10:19:37;5.50;;;3.95;;
59458;SDS011;45269;43.568;22.244;2023-08-06T10:22:12;5.35;;;4.85;;
59458;SDS011;45269;43.568;22.244;2023-08-06T10:24:51;4.47;;;4.18;;
59458;SDS011;45269;43.568;22.244;2023-08-06T10:27:28;5.45;;;5.05;;
59458;SDS011;45269;43.568;22.244;2023-08-06T10:29:53;4.80;;;4.40;;
59458;SDS011;45269;43.568;22.244;2023-08-06T10:32:19;5.60;;;4.57;;
59458;SDS011;45269;43.568;22.244;2023-08-06T10:34:57;5.03;;;4.63;;
59458;SDS011;45269;43.568;22.244;2023-08-06T10:37:22;4.75;;;4.45;;
59458;SDS011;45269;43.568;22.244;2023-08-06T10:39:51;11.30;;;5.97;;
59458;SDS011;45269;43.568;22.244;2023-08-06T10:42:26;5.60;;;5.20;;
59458;SDS011;45269;43.568;22.244;2023-08-06T10:47:49;5.43;;;4.93;;
59458;SDS011;45269;43.568;22.244;2023-08-06T10:50:15;5.47;;;4.75;;
59458;SDS011;45269;43.568;22.244;2023-08-06T10:52:42;4.90;;;4.20;;
59458;SDS011;45269;43.568;22.244;2023-08-06T10:55:07;4.97;;;4.15;;
59458;SDS011;45269;43.568;22.244;2023-08-06T10:57:34;4.50;;;4.10;;
59458;SDS011;45269;43.568;22.244;2023-08-06T10:59:59;4.82;;;4.43;;
59458;SDS011;45269;43.568;22.244;2023-08-06T11:02:25;4.70;;;4.35;;
59458;SDS011;45269;43.568;22.244;2023-08-06T11:04:50;4.57;;;4.18;;
59458;SDS011;45269;43.568;22.244;2023-08-06T11:07:17;4.85;;;4.40;;
59458;SDS011;45269;43.568;22.244;2023-08-06T11:09:42;6.10;;;4.53;;
59458;SDS011;45269;43.568;22.244;2023-08-06T11:12:11;4.40;;;4.00;;
59458;SDS011;45269;43.568;22.244;2023-08-06T11:14:36;4.78;;;4.38;;
59458;SDS011;45269;43.568;22.244;2023-08-06T11:17:02;4.65;;;4.28;;
59458;SDS011;45269;43.568;22.244;2023-08-06T11:19:27;5.53;;;4.50;;
59458;SDS011;45269;43.568;22.244;2023-08-06T11:21:52;5.55;;;5.03;;
59458;SDS011;45269;43.568;22.244;2023-08-06T11:24:18;7.25;;;6.55;;
59458;SDS011;45269;43.568;22.244;2023-08-06T11:26:43;7.22;;;6.72;;
59458;SDS011;45269;43.568;22.244;2023-08-06T11:29:09;14.65;;;13.25;;
59458;SDS011;45269;43.568;22.244;2023-08-06T11:31:35;9.13;;;8.40;;
59458;SDS011;45269;43.568;22.244;2023-08-06T11:34:01;10.13;;;8.15;;
59458;SDS011;45269;43.568;22.244;2023-08-06T11:36:30;8.27;;;7.47;;
59458;SDS011;45269;43.568;22.244;2023-08-06T11:38:56;10.77;;;9.15;;
59458;SDS011;45269;43.568;22.244;2023-08-06T11:41:21;9.50;;;8.05;;
59458;SDS011;45269;43.568;22.244;2023-08-06T11:43:46;8.55;;;7.75;;
59458;SDS011;45269;43.568;22.244;2023-08-06T11:46:12;9.07;;;8.20;;
59458;SDS011;45269;43.568;22.244;2023-08-06T11:48:50;9.43;;;8.73;;
59458;SDS011;45269;43.568;22.244;2023-08-06T11:51:16;9.13;;;8.03;;
59458;SDS011;45269;43.568;22.244;2023-08-06T11:53:41;8.65;;;7.95;;
59458;SDS011;45269;43.568;22.244;2023-08-06T11:56:06;9.32;;;8.55;;
59458;SDS011;45269;43.568;22.244;2023-08-06T11:58:32;9.50;;;8.70;;
59458;SDS011;45269;43.568;22.244;2023-08-06T12:00:57;8.30;;;7.70;;
59458;SDS011;45269;43.568;22.244;2023-08-06T12:03:23;9.20;;;8.30;;
59458;SDS011;45269;43.568;22.244;2023-08-06T12:05:53;9.15;;;7.57;;
59458;SDS011;45269;43.568;22.244;2023-08-06T12:08:19;8.27;;;7.57;;
59458;SDS011;45269;43.568;22.244;2023-08-06T12:10:44;8.40;;;7.80;;
59458;SDS011;45269;43.568;22.244;2023-08-06T12:13:11;8.27;;;7.57;;
59458;SDS011;45269;43.568;22.244;2023-08-06T12:15:38;7.75;;;7.15;;
59458;SDS011;45269;43.568;22.244;2023-08-06T12:18:03;7.22;;;6.72;;
59458;SDS011;45269;43.568;22.244;2023-08-06T12:20:28;7.63;;;7.10;;
59458;SDS011;45269;43.568;22.244;2023-08-06T12:22:54;7.88;;;7.28;;
59458;SDS011;45269;43.568;22.244;2023-08-06T12:25:19;7.53;;;6.93;;
59458;SDS011;45269;43.568;22.244;2023-08-06T12:27:44;8.35;;;7.55;;
59458;SDS011;45269;43.568;22.244;2023-08-06T12:30:11;7.72;;;6.97;;
59458;SDS011;45269;43.568;22.244;2023-08-06T12:32:37;7.60;;;7.00;;
59458;SDS011;45269;43.568;22.244;2023-08-06T12:35:02;6.25;;;5.82;;
59458;SDS011;45269;43.568;22.244;2023-08-06T12:37:28;7.45;;;6.85;;
59458;SDS011;45269;43.568;22.244;2023-08-06T12:39:53;6.88;;;6.32;;
59458;SDS011;45269;43.568;22.244;2023-08-06T12:42:19;6.78;;;6.28;;
59458;SDS011;45269;43.568;22.244;2023-08-06T12:44:45;6.70;;;6.20;;
59458;SDS011;45269;43.568;22.244;2023-08-06T12:47:10;7.30;;;6.60;;
59458;SDS011;45269;43.568;22.244;2023-08-06T12:49:36;7.55;;;6.80;;
59458;SDS011;45269;43.568;22.244;2023-08-06T12:52:01;6.72;;;6.20;;
59458;SDS011;45269;43.568;22.244;2023-08-06T12:54:27;7.05;;;6.00;;
59458;SDS011;45269;43.568;22.244;2023-08-06T12:56:53;6.85;;;6.28;;
59458;SDS011;45269;43.568;22.244;2023-08-06T12:59:18;7.93;;;7.32;;
59458;SDS011;45269;43.568;22.244;2023-08-06T13:01:44;7.20;;;6.70;;
59458;SDS011;45269;43.568;22.244;2023-08-06T13:04:09;8.20;;;7.60;;
59458;SDS011;45269;43.568;22.244;2023-08-06T13:06:35;7.75;;;7.15;;
59458;SDS011;45269;43.568;22.244;2023-08-06T13:09:08;8.25;;;7.60;;
59458;SDS011;45269;43.568;22.244;2023-08-06T13:11:34;7.82;;;7.13;;
59458;SDS011;45269;43.568;22.244;2023-08-06T13:14:09;8.50;;;7.70;;
59458;SDS011;45269;43.568;22.244;2023-08-06T13:16:35;7.60;;;7.00;;
59458;SDS011;45269;43.568;22.244;2023-08-06T13:19:01;8.15;;;7.45;;
59458;SDS011;45269;43.568;22.244;2023-08-06T13:21:31;7.32;;;6.72;;
59458;SDS011;45269;43.568;22.244;2023-08-06T13:23:57;8.93;;;8.02;;
59458;SDS011;45269;43.568;22.244;2023-08-06T13:26:22;9.23;;;8.43;;
59458;SDS011;45269;43.568;22.244;2023-08-06T13:28:48;8.00;;;7.40;;
59458;SDS011;45269;43.568;22.244;2023-08-06T13:31:14;9.90;;;9.15;;
59458;SDS011;45269;43.568;22.244;2023-08-06T13:33:39;10.63;;;9.80;;
59458;SDS011;45269;43.568;22.244;2023-08-06T13:36:05;10.43;;;9.52;;
59458;SDS011;45269;43.568;22.244;2023-08-06T13:38:31;8.25;;;7.65;;
59458;SDS011;45269;43.568;22.244;2023-08-06T13:40:56;8.10;;;7.40;;
59458;SDS011;45269;43.568;22.244;2023-08-06T13:43:22;8.10;;;7.50;;
59458;SDS011;45269;43.568;22.244;2023-08-06T13:45:47;8.35;;;7.65;;
59458;SDS011;45269;43.568;22.244;2023-08-06T13:48:12;8.63;;;7.93;;
59458;SDS011;45269;43.568;22.244;2023-08-06T13:50:38;7.05;;;6.53;;
59458;SDS011;45269;43.568;22.244;2023-08-06T13:53:03;8.02;;;7.22;;
59458;SDS011;45269;43.568;22.244;2023-08-06T13:55:28;7.05;;;6.32;;
59458;SDS011;45269;43.568;22.244;2023-08-06T13:57:54;6.50;;;5.63;;
59458;SDS011;45269;43.568;22.244;2023-08-06T14:00:19;6.32;;;5.75;;
59458;SDS011;45269;43.568;22.244;2023-08-06T14:02:45;5.65;;;5.25;;
59458;SDS011;45269;43.568;22.244;2023-08-06T14:05:10;6.75;;;6.15;;
59458;SDS011;45269;43.568;22.244;2023-08-06T14:07:36;5.95;;;5.45;;
59458;SDS011;45269;43.568;22.244;2023-08-06T14:10:01;5.80;;;5.30;;
59458;SDS011;45269;43.568;22.244;2023-08-06T14:12:26;7.00;;;6.40;;
59458;SDS011;45269;43.568;22.244;2023-08-06T14:14:52;6.88;;;6.13;;
59458;SDS011;45269;43.568;22.244;2023-08-06T14:17:17;7.35;;;6.75;;
59458;SDS011;45269;43.568;22.244;2023-08-06T14:19:42;6.88;;;6.28;;
59458;SDS011;45269;43.568;22.244;2023-08-06T14:22:08;7.47;;;6.88;;
59458;SDS011;45269;43.568;22.244;2023-08-06T14:24:33;7.70;;;6.88;;
59458;SDS011;45269;43.568;22.244;2023-08-06T14:26:58;6.85;;;6.25;;
59458;SDS011;45269;43.568;22.244;2023-08-06T14:29:24;7.25;;;6.55;;
59458;SDS011;45269;43.568;22.244;2023-08-06T14:31:49;6.72;;;6.03;;
59458;SDS011;45269;43.568;22.244;2023-08-06T14:34:15;6.35;;;5.75;;